Time;durP1;ratioP1;P1;durP2;ratioP2;P2;SDS_P1;SDS_P2;PMS_P1;PMS_P2;Temp;Humidity;BMP_temperature;BMP_pressure;BME280_temperature;BME280_humidity;BME280_pressure;Samples;Min_cycle;Max_cycle;Signal;HPM_P1;HPM_P2
2022/01/15 00:05:56;;;;;;;53.55;23.00;;;-1.00;99.90;;;;;;20699006;28;20037;-75
2022/01/15 00:16:12;;;;;;;44.03;20.73;;;-1.20;99.90;;;;;;20710693;28;20026;-75
2022/01/15 00:26:13;;;;;;;48.97;20.58;;;-1.20;99.90;;;;;;20710468;28;20058;-75
2022/01/15 00:36:15;;;;;;;54.63;20.33;;;-1.20;99.90;;;;;;20703661;28;20428;-75
2022/01/15 00:46:16;;;;;;;49.28;18.88;;;-1.10;99.90;;;;;;20668638;28;20137;-75
2022/01/15 00:56:17;;;;;;;36.00;16.80;;;-1.20;99.90;;;;;;20668973;28;20065;-75
2022/01/15 01:06:18;;;;;;;38.63;15.68;;;-1.50;99.90;;;;;;20668128;28;20026;-75
2022/01/15 01:46:52;;;;;;;29.08;13.57;;;-1.50;99.90;;;;;;20665147;28;20030;-75
2022/01/15 01:56:53;;;;;;;24.08;10.75;;;-1.50;99.90;;;;;;20664279;28;20519;-75
2022/01/15 02:06:54;;;;;;;28.08;11.23;;;-1.50;99.90;;;;;;20663755;28;20038;-75
2022/01/15 02:16:56;;;;;;;27.50;11.43;;;-1.50;99.90;;;;;;20662746;28;20058;-75
2022/01/15 02:26:57;;;;;;;32.42;13.18;;;-1.60;99.90;;;;;;20662712;28;20516;-75
2022/01/15 02:36:57;;;;;;;32.50;12.98;;;-1.50;99.90;;;;;;20662360;28;20034;-75
2022/01/15 02:57:04;;;;;;;32.35;12.00;;;-2.10;99.90;;;;;;20661393;28;20050;-75
2022/01/15 03:07:06;;;;;;;27.90;12.45;;;-2.30;99.90;;;;;;20661150;28;20061;-75
2022/01/15 03:17:07;;;;;;;30.77;12.45;;;-2.30;99.90;;;;;;20660701;28;20041;-75
2022/01/15 03:27:08;;;;;;;36.92;14.05;;;-2.50;99.90;;;;;;20663949;28;20488;-75
2022/01/15 03:37:09;;;;;;;30.30;12.57;;;-2.60;99.90;;;;;;20675408;28;20034;-75
2022/01/15 03:47:11;;;;;;;31.65;15.40;;;-2.20;99.90;;;;;;20674698;28;20109;-76
2022/01/15 03:57:12;;;;;;;24.83;10.77;;;-2.10;99.90;;;;;;20673823;28;20554;-76
2022/01/15 04:07:12;;;;;;;37.40;15.98;;;-2.20;99.90;;;;;;20673157;28;20089;-76
2022/01/15 04:17:13;;;;;;;33.53;15.20;;;-2.20;99.90;;;;;;20672287;28;20040;-76
2022/01/15 04:27:14;;;;;;;39.50;14.98;;;-2.20;99.90;;;;;;20670563;28;20034;-76
2022/01/15 04:37:19;;;;;;;42.25;19.17;;;-2.30;99.90;;;;;;20670275;28;20030;-75
2022/01/15 04:47:20;;;;;;;50.72;18.77;;;-2.50;99.90;;;;;;20670081;28;20037;-77
2022/01/15 04:57:21;;;;;;;63.00;25.63;;;-2.80;99.90;;;;;;20669304;28;20038;-76
2022/01/15 05:07:22;;;;;;;59.60;25.27;;;-2.90;99.90;;;;;;20668504;28;20034;-75
2022/01/15 05:17:23;;;;;;;61.47;24.75;;;-2.80;99.90;;;;;;20743361;28;20048;-76
2022/01/15 05:27:24;;;;;;;63.38;23.02;;;-2.80;99.90;;;;;;20747943;28;20121;-77
2022/01/15 05:37:25;;;;;;;64.55;24.58;;;-2.80;99.90;;;;;;20747159;28;20029;-76
2022/01/15 05:47:26;;;;;;;69.00;25.38;;;-2.90;99.90;;;;;;20744994;28;20511;-76
2022/01/15 05:57:26;;;;;;;74.28;26.77;;;-2.90;99.90;;;;;;20774551;22;20046;-74
2022/01/15 06:07:27;;;;;;;66.05;26.23;;;-2.90;99.90;;;;;;20825871;28;20044;-74
2022/01/15 06:17:28;;;;;;;54.58;21.70;;;-2.80;99.90;;;;;;20826598;28;20431;-74
2022/01/15 06:27:30;;;;;;;64.53;25.45;;;-2.90;99.90;;;;;;20825962;28;20033;-74
2022/01/15 06:37:31;;;;;;;67.53;25.85;;;-2.90;99.90;;;;;;20825095;28;20503;-74
2022/01/15 06:47:32;;;;;;;75.88;28.88;;;-2.90;99.90;;;;;;20824898;28;20052;-74
2022/01/15 06:57:33;;;;;;;87.82;32.85;;;-2.90;99.90;;;;;;20824319;28;20128;-73
2022/01/15 07:07:35;;;;;;;104.35;35.17;;;-2.80;99.90;;;;;;20838644;28;20061;-74
2022/01/15 07:17:43;;;;;;;98.72;35.70;;;-2.70;99.90;;;;;;20822102;28;20032;-74
2022/01/15 07:27:44;;;;;;;101.88;36.45;;;-2.80;99.90;;;;;;20839193;28;20037;-74
2022/01/15 07:37:45;;;;;;;105.45;38.28;;;-2.80;99.90;;;;;;20838456;28;20538;-73
2022/01/15 07:47:46;;;;;;;114.60;38.45;;;-2.60;99.90;;;;;;20837912;28;20375;-74
2022/01/15 07:57:47;;;;;;;97.28;35.03;;;-2.40;99.90;;;;;;20837000;28;20060;-74
2022/01/15 08:07:48;;;;;;;87.45;32.63;;;-2.20;99.90;;;;;;20836583;28;20026;-73
2022/01/15 08:17:49;;;;;;;88.22;32.67;;;-2.00;99.90;;;;;;20834786;28;20032;-73
2022/01/15 08:27:52;;;;;;;97.28;33.80;;;-2.00;99.90;;;;;;20834815;28;20503;-74
2022/01/15 08:37:54;;;;;;;96.68;34.05;;;-1.40;99.90;;;;;;20834138;28;20048;-73
2022/01/15 08:47:56;;;;;;;89.15;32.63;;;-1.10;99.90;;;;;;20833056;28;20043;-73
2022/01/15 08:57:57;;;;;;;84.55;30.40;;;-1.10;99.90;;;;;;20831828;28;20364;-73
2022/01/15 09:07:57;;;;;;;92.63;31.35;;;-1.20;99.90;;;;;;20831145;28;20026;-73
2022/01/15 09:17:58;;;;;;;72.75;27.58;;;-1.10;99.90;;;;;;20830476;28;20108;-73
2022/01/15 09:38:19;;;;;;;62.95;25.60;;;-0.40;99.90;;;;;;20828999;28;20484;-73
2022/01/15 09:48:25;;;;;;;54.67;24.48;;;-0.60;99.90;;;;;;20828579;28;20535;-73
2022/01/15 09:58:26;;;;;;;63.63;25.85;;;-0.30;99.90;;;;;;20827330;28;20391;-73
2022/01/15 10:08:28;;;;;;;66.20;26.80;;;-0.20;99.90;;;;;;20826710;28;20037;-73
2022/01/15 10:18:31;;;;;;;60.53;25.02;;;-0.10;99.90;;;;;;20826252;28;20100;-73
2022/01/15 10:28:57;;;;;;;66.15;25.67;;;0.10;99.90;;;;;;20825544;28;20069;-73
2022/01/15 10:39:19;;;;;;;60.50;25.17;;;0.90;99.90;;;;;;20824576;28;20033;-73
2022/01/15 10:49:24;;;;;;;53.70;23.10;;;2.00;99.90;;;;;;20824948;28;20500;-73
2022/01/15 10:59:25;;;;;;;51.80;23.88;;;2.60;99.90;;;;;;20823848;28;20037;-73
2022/01/15 11:09:35;;;;;;;55.67;25.27;;;2.20;99.90;;;;;;20823856;28;20056;-73
2022/01/15 11:19:36;;;;;;;57.85;26.92;;;1.90;99.90;;;;;;20823550;28;20091;-73
2022/01/15 11:29:41;;;;;;;68.32;30.67;;;2.20;99.90;;;;;;20822348;28;20116;-73
2022/01/15 11:39:42;;;;;;;72.57;27.90;;;1.80;99.90;;;;;;20822826;28;20369;-73
2022/01/15 11:49:49;;;;;;;70.88;29.33;;;2.00;99.90;;;;;;20812848;28;20037;-73
2022/01/15 12:00:00;;;;;;;63.17;29.45;;;2.20;99.90;;;;;;20772025;23;20078;-77
2022/01/15 12:10:02;;;;;;;60.22;27.75;;;2.50;99.90;;;;;;20709931;28;20099;-76
2022/01/15 12:20:25;;;;;;;65.63;27.42;;;3.20;99.90;;;;;;20660610;28;20054;-76
2022/01/15 12:30:29;;;;;;;65.65;27.40;;;3.50;99.90;;;;;;20619830;28;20827;-74
2022/01/15 12:40:36;;;;;;;56.53;25.83;;;3.30;99.90;;;;;;20648290;28;20049;-77
2022/01/15 12:50:47;;;;;;;61.58;27.73;;;4.10;99.90;;;;;;20679291;28;20558;-77
2022/01/15 13:00:50;;;;;;;67.50;29.08;;;5.00;99.90;;;;;;20647034;28;20119;-78
2022/01/15 13:11:04;;;;;;;72.30;31.48;;;5.40;99.90;;;;;;20648564;28;20041;-77
2022/01/15 13:21:07;;;;;;;60.85;27.50;;;5.10;99.90;;;;;;20663765;28;20132;-76
2022/01/15 13:31:12;;;;;;;60.88;29.20;;;4.50;99.90;;;;;;20646500;28;20034;-77
2022/01/15 13:41:19;;;;;;;62.95;27.83;;;4.60;99.90;;;;;;20660866;28;20041;-77
2022/01/15 14:02:01;;;;;;;65.38;29.13;;;4.10;99.90;;;;;;20644119;28;20128;-76
2022/01/15 14:12:04;;;;;;;63.20;28.90;;;4.20;99.90;;;;;;20642110;28;20113;-77
2022/01/15 14:22:20;;;;;;;68.35;31.23;;;4.70;99.90;;;;;;20639911;28;20472;-77
2022/01/15 14:32:22;;;;;;;66.65;30.52;;;4.70;99.90;;;;;;20642173;28;20034;-76
2022/01/15 14:42:24;;;;;;;71.57;31.30;;;4.20;99.90;;;;;;20666656;28;20037;-76
2022/01/15 14:52:26;;;;;;;69.78;31.30;;;3.80;99.90;;;;;;20655829;28;20097;-77
2022/01/15 15:02:27;;;;;;;76.55;33.25;;;3.90;99.90;;;;;;20642398;28;20113;-77
2022/01/15 15:12:40;;;;;;;75.03;33.38;;;3.60;99.90;;;;;;20641782;28;20035;-77
2022/01/15 15:22:44;;;;;;;79.75;33.70;;;3.00;99.90;;;;;;20645913;28;20042;-76
2022/01/15 15:32:45;;;;;;;84.70;36.22;;;2.30;99.90;;;;;;20655102;28;20057;-76
2022/01/15 15:42:46;;;;;;;81.63;35.15;;;1.70;99.90;;;;;;20672402;28;20484;-77
2022/01/15 15:52:47;;;;;;;84.72;35.45;;;1.30;99.90;;;;;;20674887;28;20101;-77
2022/01/15 16:02:49;;;;;;;92.88;36.25;;;1.30;99.90;;;;;;20674231;28;20030;-77
2022/01/15 16:12:51;;;;;;;95.97;37.10;;;0.90;99.90;;;;;;20673434;28;20038;-77
2022/01/15 16:22:52;;;;;;;97.80;37.03;;;0.70;99.90;;;;;;20672273;28;20034;-76
2022/01/15 16:32:53;;;;;;;91.00;37.97;;;0.50;99.90;;;;;;20669122;28;20037;-77
2022/01/15 16:42:54;;;;;;;100.25;37.35;;;0.20;99.90;;;;;;20670319;28;20057;-76
2022/01/15 16:52:55;;;;;;;100.03;38.85;;;0.20;99.90;;;;;;20669140;28;20030;-77
2022/01/15 17:02:56;;;;;;;100.57;37.85;;;0.10;99.90;;;;;;20668993;28;20034;-76
2022/01/15 17:12:58;;;;;;;97.30;36.83;;;0.10;99.90;;;;;;20668424;28;20034;-77
2022/01/15 17:22:59;;;;;;;119.13;39.50;;;0.00;99.90;;;;;;20667836;28;20393;-76
2022/01/15 17:33:00;;;;;;;93.32;36.15;;;-0.50;99.90;;;;;;20665313;28;20034;-76
2022/01/15 17:43:01;;;;;;;89.07;35.90;;;-0.60;99.90;;;;;;20665164;28;20022;-76
2022/01/15 17:53:02;;;;;;;110.40;34.85;;;-0.70;99.90;;;;;;20661273;28;20393;-76
2022/01/15 18:03:04;;;;;;;104.95;36.97;;;-0.80;99.90;;;;;;20751748;22;20499;-77
2022/01/15 18:13:05;;;;;;;101.00;38.30;;;-0.90;99.90;;;;;;20818247;28;20029;-76
2022/01/15 18:23:05;;;;;;;290.58;46.58;;;-0.80;99.90;;;;;;20827242;28;20036;-76
2022/01/15 18:33:08;;;;;;;173.75;38.20;;;-1.00;99.90;;;;;;20826043;28;20042;-76
2022/01/15 18:43:09;;;;;;;159.27;38.90;;;-1.00;99.90;;;;;;20825529;28;20479;-76
2022/01/15 18:53:10;;;;;;;254.13;42.15;;;-0.90;99.90;;;;;;20823219;28;20041;-76
2022/01/15 19:03:12;;;;;;;337.35;43.80;;;-1.10;99.90;;;;;;20838586;28;20069;-76
2022/01/15 19:13:13;;;;;;;240.30;40.20;;;-1.30;99.90;;;;;;20841076;28;20030;-76
2022/01/15 19:23:14;;;;;;;410.63;50.28;;;-1.20;99.90;;;;;;20840574;28;20064;-76
2022/01/15 19:33:15;;;;;;;248.50;41.08;;;-1.30;99.90;;;;;;20839124;28;20041;-76
2022/01/15 19:43:16;;;;;;;155.52;37.75;;;-1.40;99.90;;;;;;20838386;28;20033;-76
2022/01/15 19:53:18;;;;;;;149.32;37.75;;;-1.40;99.90;;;;;;20836806;28;20043;-76
2022/01/15 20:03:18;;;;;;;302.27;43.10;;;-1.40;99.90;;;;;;20836822;28;20044;-75
2022/01/15 20:13:19;;;;;;;196.10;43.22;;;-1.30;99.90;;;;;;20834382;28;20034;-75
2022/01/15 20:23:21;;;;;;;115.07;38.65;;;-1.50;99.90;;;;;;20834217;28;20025;-75
2022/01/15 20:33:22;;;;;;;286.20;43.95;;;-1.40;99.90;;;;;;20834873;28;20103;-76
2022/01/15 20:43:24;;;;;;;156.73;40.10;;;-1.50;99.90;;;;;;20832624;28;20037;-75
2022/01/15 20:53:24;;;;;;;130.23;36.95;;;-1.40;99.90;;;;;;20831961;28;20043;-75
2022/01/15 21:03:25;;;;;;;135.85;39.13;;;-1.30;99.90;;;;;;20832252;28;20057;-75
2022/01/15 21:13:26;;;;;;;148.23;38.60;;;-1.40;99.90;;;;;;20830480;28;20042;-76
2022/01/15 21:23:28;;;;;;;192.65;39.03;;;-1.30;99.90;;;;;;20830159;28;20033;-75
2022/01/15 21:33:29;;;;;;;285.00;42.25;;;-1.30;99.90;;;;;;20828707;28;20033;-75
2022/01/15 21:43:30;;;;;;;105.93;37.50;;;-1.30;99.90;;;;;;20827791;28;20100;-75
2022/01/15 21:53:32;;;;;;;112.18;38.60;;;-1.20;99.90;;;;;;20828269;28;20400;-75
2022/01/15 22:03:33;;;;;;;255.52;39.65;;;-1.30;99.90;;;;;;20826084;28;20033;-75
2022/01/15 22:13:34;;;;;;;167.40;39.22;;;-1.30;99.90;;;;;;20828148;28;20518;-75
2022/01/15 22:23:34;;;;;;;138.70;38.10;;;-1.40;99.90;;;;;;20826203;28;20399;-75
2022/01/15 22:33:35;;;;;;;184.43;38.38;;;-1.30;99.90;;;;;;20825222;28;20029;-75
2022/01/15 22:43:36;;;;;;;124.88;36.05;;;-1.30;99.90;;;;;;20825007;28;20113;-75
2022/01/15 22:53:37;;;;;;;214.77;37.75;;;-1.20;99.90;;;;;;20824645;28;20091;-76
2022/01/15 23:03:38;;;;;;;108.78;37.65;;;-1.40;99.90;;;;;;20823990;28;20116;-75
2022/01/15 23:13:57;;;;;;;118.05;37.08;;;-1.50;99.90;;;;;;20823885;28;20029;-75
2022/01/15 23:23:58;;;;;;;104.68;38.22;;;-1.30;99.90;;;;;;20823422;28;20080;-75
2022/01/15 23:33:59;;;;;;;105.57;34.22;;;-1.30;99.90;;;;;;20823304;28;20033;-76
2022/01/15 23:44:18;;;;;;;87.65;33.47;;;-1.50;99.90;;;;;;20828050;28;20475;-75
2022/01/15 23:54:19;;;;;;;88.20;33.13;;;-1.50;99.90;;;;;;20838058;28;20104;-75
